Time;durP1;ratioP1;P1;durP2;ratioP2;P2;SDS_P1;SDS_P2;PMS_P1;PMS_P2;Temp;Humidity;BMP_temperature;BMP_pressure;BME280_temperature;BME280_humidity;BME280_pressure;Samples;Min_cycle;Max_cycle;Signal;HPM_P1;HPM_P2
2022/05/12 00:00:02;;;;;;;3.67;3.20;;;;;;;19.02;49.71;95111.66;5093789;28;20182;-83
2022/05/12 00:02:29;;;;;;;4.10;3.70;;;;;;;18.83;49.84;95086.28;5094846;28;20212;-85
2022/05/12 00:04:57;;;;;;;4.93;3.50;;;;;;;18.96;49.79;95109.78;5094957;28;20294;-83
2022/05/12 00:07:25;;;;;;;5.83;3.63;;;;;;;18.93;49.97;95096.38;5094199;28;20189;-83
2022/05/12 00:09:53;;;;;;;6.33;3.63;;;;;;;18.92;50.05;95099.94;5094097;28;20181;-85
2022/05/12 00:12:23;;;;;;;4.80;3.90;;;;;;;18.41;49.98;95037.63;5093340;28;20201;-83
2022/05/12 00:17:44;;;;;;;4.10;3.70;;;;;;;18.86;50.12;95100.66;5077361;28;20711;-83
2022/05/12 00:20:15;;;;;;;3.60;3.20;;;;;;;18.74;50.35;95095.13;5072687;28;20201;-82
2022/05/12 00:22:42;;;;;;;5.33;3.93;;;;;;;18.79;50.29;95100.56;5073772;28;20185;-82
2022/05/12 00:25:13;;;;;;;3.43;3.13;;;;;;;18.42;50.58;95047.78;5056676;28;20212;-82
2022/05/12 00:27:45;;;;;;;6.27;3.37;;;;;;;18.73;50.52;95109.84;5080544;28;20202;-82
2022/05/12 00:30:15;;;;;;;3.67;3.33;;;;;;;18.24;50.60;95031.81;5076139;28;20196;-83
2022/05/12 00:32:46;;;;;;;5.27;3.37;;;;;;;18.70;50.78;95101.66;5072873;28;20222;-83
2022/05/12 00:35:22;;;;;;;3.23;2.93;;;;;;;18.66;50.92;95101.16;5074276;28;20191;-86
2022/05/12 00:38:05;;;;;;;4.37;3.10;;;;;;;18.29;50.70;95050.19;5073156;28;20202;-84
2022/05/12 00:40:40;;;;;;;3.27;2.97;;;;;;;18.54;50.94;95090.41;5073006;28;20198;-83
2022/05/12 00:43:33;;;;;;;7.10;4.07;;;;;;;18.60;51.18;95104.44;5054643;28;20219;-83
2022/05/12 00:46:03;;;;;;;3.50;3.20;;;;;;;18.56;51.30;95095.41;5073130;28;20194;-84
2022/05/12 00:48:33;;;;;;;5.53;3.60;;;;;;;18.17;51.39;95042.03;5072605;28;20216;-83
2022/05/12 00:51:06;;;;;;;3.53;3.23;;;;;;;18.51;51.31;95097.72;5055384;28;20230;-82
2022/05/12 00:53:40;;;;;;;4.43;3.10;;;;;;;18.47;51.27;95102.44;5071884;28;20225;-83
2022/05/12 00:56:13;;;;;;;3.70;3.37;;;;;;;18.46;51.36;95100.84;5082493;28;20571;-83
2022/05/12 00:58:40;;;;;;;5.37;3.33;;;;;;;18.38;51.51;95090.56;5092982;28;20200;-84
2022/05/12 01:01:09;;;;;;;3.87;3.57;;;;;;;18.42;51.60;95106.56;5075565;28;20197;-84
2022/05/12 01:03:40;;;;;;;6.00;3.60;;;;;;;18.42;51.56;95111.75;5083755;28;20197;-83
2022/05/12 01:06:15;;;;;;;7.00;3.73;;;;;;;18.26;51.88;95095.38;5072294;28;20194;-83
2022/05/12 01:11:30;;;;;;;3.67;3.07;;;;;;;18.33;51.76;95121.38;5072277;28;20220;-84
2022/05/12 01:14:06;;;;;;;4.47;3.37;;;;;;;18.30;51.87;95116.53;5092949;28;20247;-84
2022/05/12 01:16:38;;;;;;;3.90;3.50;;;;;;;18.16;51.82;95099.19;5093873;28;20188;-84
2022/05/12 01:19:07;;;;;;;5.53;3.40;;;;;;;18.27;51.87;95125.47;5093771;28;20193;-83
2022/05/12 01:21:36;;;;;;;5.33;3.77;;;;;;;17.98;52.21;95079.56;5093344;28;20194;-86
2022/05/12 01:24:07;;;;;;;3.40;3.10;;;;;;;18.22;52.33;95116.59;5074926;28;20189;-85
2022/05/12 01:26:40;;;;;;;4.10;3.50;;;;;;;18.21;52.33;95120.16;5092317;28;20203;-85
2022/05/12 01:29:08;;;;;;;3.77;3.17;;;;;;;18.19;52.13;95114.38;5079616;28;20191;-85
2022/05/12 01:31:45;;;;;;;5.10;3.30;;;;;;;18.16;52.51;95123.28;5055940;28;20244;-86
2022/05/12 01:34:32;;;;;;;3.83;3.50;;;;;;;17.83;52.34;95068.34;5086810;28;20193;-85
2022/05/12 01:37:05;;;;;;;3.63;3.30;;;;;;;18.10;52.44;95123.97;5092184;28;20476;-84
2022/05/12 01:39:35;;;;;;;3.53;2.87;;;;;;;18.10;52.52;95123.97;5092371;28;20193;-84
2022/05/12 01:42:04;;;;;;;3.50;3.20;;;;;;;18.07;52.58;95123.50;5091920;28;20668;-85
2022/05/12 01:44:40;;;;;;;4.00;3.30;;;;;;;18.05;52.53;95123.69;5091229;28;20198;-85
2022/05/12 01:47:13;;;;;;;4.23;3.83;;;;;;;18.03;52.70;95126.44;5039911;28;20188;-84
2022/05/12 01:52:24;;;;;;;3.40;3.10;;;;;;;17.91;52.62;95112.28;5089515;28;20602;-86
2022/05/12 01:54:58;;;;;;;4.30;3.50;;;;;;;17.96;52.74;95122.97;5054746;28;20353;-86
2022/05/12 01:57:29;;;;;;;3.67;3.00;;;;;;;17.87;52.78;95115.41;5072034;28;20203;-86
2022/05/12 01:59:58;;;;;;;4.17;3.27;;;;;;;17.47;52.91;95052.56;5073079;28;20252;-85
2022/05/12 02:02:37;;;;;;;3.70;3.40;;;;;;;17.78;52.89;95104.28;5072006;28;20193;-85
2022/05/12 02:05:10;;;;;;;3.30;2.90;;;;;;;17.58;52.74;95082.44;5053479;28;20194;-85
2022/05/12 02:07:38;;;;;;;6.57;3.43;;;;;;;17.87;52.92;95131.72;5053666;28;20244;-84
2022/05/12 02:10:10;;;;;;;3.63;3.33;;;;;;;17.86;53.16;95131.91;5053605;28;20251;-87
2022/05/12 02:12:37;;;;;;;5.03;3.70;;;;;;;17.83;53.13;95145.97;5060137;28;20222;-85
2022/05/12 02:15:11;;;;;;;3.80;3.50;;;;;;;17.80;53.31;95134.22;5096352;28;20193;-86
2022/05/12 02:17:40;;;;;;;4.27;2.97;;;;;;;17.79;53.33;95132.59;5095676;28;20189;-87
2022/05/12 02:20:10;;;;;;;4.37;3.60;;;;;;;17.78;53.24;95140.50;5110052;28;20189;-85
2022/05/12 02:22:39;;;;;;;4.27;3.60;;;;;;;17.36;53.61;95078.81;5037893;28;20205;-85
2022/05/12 02:25:10;;;;;;;3.43;3.20;;;;;;;17.74;53.57;95144.41;5077326;28;20194;-83
2022/05/12 02:27:42;;;;;;;4.37;3.90;;;;;;;17.56;53.42;95117.00;5072833;28;20514;-82
2022/05/12 02:30:11;;;;;;;5.93;3.73;;;;;;;17.68;53.52;95134.72;5090994;28;20189;-83
2022/05/12 02:32:38;;;;;;;4.07;3.27;;;;;;;17.15;53.62;95053.56;5082410;28;20221;-82
2022/05/12 02:35:06;;;;;;;3.67;3.30;;;;;;;17.69;53.53;95146.69;5053029;28;20198;-84
2022/05/12 02:37:33;;;;;;;4.97;3.30;;;;;;;16.91;53.87;95026.06;5071961;28;20649;-85
2022/05/12 02:40:01;;;;;;;6.43;4.17;;;;;;;17.25;53.69;95088.56;5036976;28;20693;-85
2022/05/12 02:42:29;;;;;;;4.70;3.20;;;;;;;16.11;53.78;94910.00;5062033;28;20185;-85
2022/05/12 02:44:56;;;;;;;4.27;3.17;;;;;;;17.12;53.87;95072.78;5092179;28;20210;-84
2022/05/12 02:47:23;;;;;;;3.63;3.03;;;;;;;17.51;53.84;95131.44;5092312;28;20205;-84
2022/05/12 02:49:51;;;;;;;4.47;3.43;;;;;;;17.26;53.89;95097.91;5073291;28;20197;-85
2022/05/12 02:52:18;;;;;;;4.20;3.47;;;;;;;17.43;53.93;95121.13;5073213;28;20222;-84
2022/05/12 02:54:46;;;;;;;3.63;3.33;;;;;;;17.45;54.09;95129.53;5082326;28;20600;-85
2022/05/12 02:57:13;;;;;;;4.67;3.40;;;;;;;17.52;54.14;95138.19;5070679;28;20638;-85
2022/05/12 02:59:41;;;;;;;3.70;3.40;;;;;;;17.51;54.15;95147.75;5070863;28;20190;-85
2022/05/12 03:02:09;;;;;;;5.07;3.13;;;;;;;17.15;54.26;95094.91;5070989;28;20198;-87
2022/05/12 03:04:36;;;;;;;5.87;3.50;;;;;;;17.46;54.29;95150.03;5076023;28;20186;-84
2022/05/12 03:07:03;;;;;;;4.67;3.63;;;;;;;17.45;54.27;95150.22;5072487;28;20202;-84
2022/05/12 03:09:30;;;;;;;5.07;3.37;;;;;;;17.43;54.40;95150.38;5071178;28;20285;-85
2022/05/12 03:11:57;;;;;;;3.90;3.53;;;;;;;16.89;54.41;95067.56;5070517;28;20190;-85
2022/05/12 03:14:24;;;;;;;4.67;3.40;;;;;;;17.41;54.67;95156.69;5070387;28;20229;-85
2022/05/12 03:16:53;;;;;;;5.13;3.80;;;;;;;16.38;54.43;94994.75;5070491;28;20234;-84
2022/05/12 03:19:21;;;;;;;4.03;3.63;;;;;;;17.39;54.68;95158.63;5072711;28;20202;-84
2022/05/12 03:21:48;;;;;;;4.83;3.50;;;;;;;17.38;54.63;95157.81;5076426;28;20550;-84
2022/05/12 03:24:15;;;;;;;6.57;3.60;;;;;;;17.39;54.82;95166.38;5070020;28;20194;-85
2022/05/12 03:26:42;;;;;;;7.53;3.30;;;;;;;17.19;54.71;95129.81;5079053;28;20197;-83
2022/05/12 03:29:09;;;;;;;5.10;4.03;;;;;;;17.37;54.90;95166.56;5090005;28;20308;-85
2022/05/12 03:31:36;;;;;;;5.77;3.63;;;;;;;17.38;54.94;95173.34;5090444;28;20543;-82
2022/05/12 03:34:06;;;;;;;4.43;3.40;;;;;;;15.90;54.66;94933.75;5093539;28;20220;-84
2022/05/12 03:36:35;;;;;;;4.30;3.60;;;;;;;17.30;54.95;95169.00;5091125;28;20342;-84
2022/05/12 03:39:07;;;;;;;4.10;3.70;;;;;;;17.33;54.89;95175.63;5089936;28;20227;-85
2022/05/12 03:41:34;;;;;;;4.03;3.53;;;;;;;17.14;54.90;95150.16;5090183;28;20190;-84
2022/05/12 03:46:45;;;;;;;5.37;3.50;;;;;;;16.93;54.89;95115.34;5071662;28;20205;-85
2022/05/12 03:49:14;;;;;;;4.83;4.03;;;;;;;17.44;54.85;95189.94;5070800;28;20237;-86
2022/05/12 03:51:41;;;;;;;6.73;3.70;;;;;;;17.45;54.98;95194.97;5070512;28;20232;-85
2022/05/12 03:54:08;;;;;;;3.90;3.53;;;;;;;17.47;54.99;95192.22;5069747;28;20222;-85
2022/05/12 03:56:35;;;;;;;6.50;4.20;;;;;;;17.11;54.88;95132.41;5070246;28;20190;-85
2022/05/12 03:59:02;;;;;;;5.87;3.73;;;;;;;16.46;54.82;95035.22;5070135;28;20202;-86
2022/05/12 04:01:29;;;;;;;6.50;4.13;;;;;;;16.46;55.00;95036.03;5070538;28;20196;-84
2022/05/12 04:03:56;;;;;;;6.90;4.20;;;;;;;17.59;54.95;95197.84;5052094;28;20213;-85
2022/05/12 04:06:25;;;;;;;9.07;4.13;;;;;;;17.40;54.98;95174.00;5070267;28;20201;-87
2022/05/12 04:08:52;;;;;;;6.43;4.43;;;;;;;17.18;55.20;95136.72;5070270;28;20221;-85
2022/05/12 04:11:19;;;;;;;5.57;4.37;;;;;;;17.66;54.88;95204.75;5070528;28;20265;-84
2022/05/12 04:13:46;;;;;;;7.30;4.87;;;;;;;17.70;54.85;95211.19;5060938;28;20225;-85
2022/05/12 04:16:15;;;;;;;7.50;4.87;;;;;;;17.65;54.98;95192.78;5094406;28;20178;-86
2022/05/12 04:18:42;;;;;;;6.80;5.50;;;;;;;17.34;54.94;95137.66;5072811;28;20221;-86
2022/05/12 04:21:16;;;;;;;9.90;5.10;;;;;;;17.67;54.98;95185.66;5082802;28;20244;-86
2022/05/12 04:23:45;;;;;;;11.60;5.67;;;;;;;17.86;54.95;95204.34;5070572;28;20573;-85
2022/05/12 04:26:22;;;;;;;11.97;5.23;;;;;;;17.89;54.75;95209.19;5055503;28;20255;-84
2022/05/12 04:28:51;;;;;;;8.30;5.83;;;;;;;17.93;55.17;95207.88;5054240;28;20679;-88
2022/05/12 04:31:18;;;;;;;8.70;5.17;;;;;;;17.95;55.08;95206.72;5075087;28;20183;-83
2022/05/12 04:36:30;;;;;;;8.23;4.97;;;;;;;17.43;55.15;95121.91;5070911;28;20360;-84
2022/05/12 04:38:59;;;;;;;8.07;3.93;;;;;;;18.18;63.33;95206.75;5072149;28;20185;-84
2022/05/12 04:41:26;;;;;;;7.03;4.27;;;;;;;18.44;70.94;95221.97;5080550;28;20612;-88
2022/05/12 04:43:54;;;;;;;7.77;3.83;;;;;;;18.67;70.71;95215.97;5093663;28;20193;-84
2022/05/12 04:46:21;;;;;;;5.97;3.97;;;;;;;18.90;69.40;95221.94;5089506;28;20202;-85
2022/05/12 04:48:48;;;;;;;8.10;4.60;;;;;;;18.17;65.68;95080.06;5097961;28;20196;-84
2022/05/12 04:51:15;;;;;;;7.37;5.00;;;;;;;19.07;60.93;95201.84;5094543;28;20251;-88
2022/05/12 04:53:42;;;;;;;6.03;4.20;;;;;;;19.35;60.11;95222.00;5093661;28;20229;-86
2022/05/12 04:56:10;;;;;;;6.07;4.20;;;;;;;19.66;62.37;95227.03;5091642;28;20201;-84
2022/05/12 04:58:37;;;;;;;9.53;4.67;;;;;;;19.99;64.83;95228.22;5096239;28;20189;-82
2022/05/12 05:01:04;;;;;;;10.47;6.10;;;;;;;20.18;69.38;95192.25;5092784;28;20189;-81
2022/05/12 05:03:32;;;;;;;10.13;6.63;;;;;;;20.85;69.06;95230.06;5091551;28;20217;-82
2022/05/12 05:05:59;;;;;;;10.80;5.80;;;;;;;21.25;65.82;95221.56;5093859;28;20660;-80
2022/05/12 05:08:26;;;;;;;7.63;5.27;;;;;;;21.79;62.50;95222.66;5073727;28;20190;-84
2022/05/12 05:10:54;;;;;;;8.87;5.33;;;;;;;22.25;59.60;95235.09;5055292;28;20546;-83
2022/05/12 05:13:25;;;;;;;11.73;5.75;;;;;;;22.62;58.53;95218.09;5072985;28;20202;-79
2022/05/12 05:15:54;;;;;;;10.55;5.03;;;;;;;22.83;56.90;95164.94;5073025;28;20669;-80
2022/05/12 05:18:21;;;;;;;6.63;4.00;;;;;;;23.99;55.00;95234.78;5072531;28;20247;-79
2022/05/12 05:20:49;;;;;;;9.00;4.47;;;;;;;24.68;53.10;95241.88;5072724;28;20191;-80
2022/05/12 05:23:16;;;;;;;8.95;3.90;;;;;;;24.95;51.47;95174.44;5072870;28;20179;-81
2022/05/12 05:25:43;;;;;;;4.30;3.60;;;;;;;25.75;49.99;95173.66;5073030;28;20206;-80
2022/05/12 05:28:13;;;;;;;6.15;4.18;;;;;;;26.88;48.03;95235.09;5072876;28;20187;-81
2022/05/12 05:30:42;;;;;;;8.88;4.15;;;;;;;27.64;46.57;95239.47;5072689;28;20259;-81
2022/05/12 05:33:09;;;;;;;7.40;4.18;;;;;;;28.39;44.87;95241.25;5072292;28;20198;-80
2022/05/12 05:35:36;;;;;;;6.90;3.67;;;;;;;28.77;43.71;95192.41;5072463;28;20210;-81
2022/05/12 05:38:04;;;;;;;8.73;3.45;;;;;;;29.84;42.04;95244.06;5072431;28;20183;-81
2022/05/12 05:40:31;;;;;;;10.38;4.45;;;;;;;30.53;40.76;95240.06;5074527;28;20609;-80
2022/05/12 05:42:59;;;;;;;5.93;4.00;;;;;;;31.19;39.11;95248.59;5078068;28;20189;-80
2022/05/12 05:45:26;;;;;;;4.65;3.20;;;;;;;31.81;37.93;95245.28;5079038;28;20183;-81
2022/05/12 05:47:59;;;;;;;4.47;3.42;;;;;;;32.45;36.79;95253.00;5075901;28;20201;-81
2022/05/12 05:50:28;;;;;;;6.10;3.88;;;;;;;32.55;35.88;95171.97;5071206;28;20193;-81
2022/05/12 05:55:39;;;;;;;4.28;3.63;;;;;;;34.22;33.87;95252.31;5072186;28;20256;-80
2022/05/12 05:58:07;;;;;;;7.05;3.35;;;;;;;34.76;32.90;95256.00;5071750;28;20285;-82
2022/05/12 06:00:34;;;;;;;4.57;3.42;;;;;;;35.26;32.29;95257.53;5076301;28;20195;-81
2022/05/12 06:03:02;;;;;;;5.57;4.00;;;;;;;35.74;31.55;95254.16;5074233;28;20190;-82
2022/05/12 06:05:29;;;;;;;8.15;3.90;;;;;;;36.18;30.82;95257.41;5075376;28;20194;-80
2022/05/12 06:07:57;;;;;;;7.78;3.88;;;;;;;36.60;30.31;95258.44;5075304;28;20194;-82
2022/05/12 06:10:25;;;;;;;5.75;3.53;;;;;;;36.99;29.62;95256.56;5074909;28;20187;-80
2022/05/12 06:12:53;;;;;;;6.07;4.00;;;;;;;37.36;28.98;95266.38;5083139;28;20197;-80
2022/05/12 06:15:20;;;;;;;5.05;3.42;;;;;;;36.95;28.79;95143.56;5088781;28;20209;-80
2022/05/12 06:17:48;;;;;;;12.38;3.75;;;;;;;38.02;28.16;95259.84;5092048;28;20272;-84
2022/05/12 06:20:17;;;;;;;4.97;3.92;;;;;;;38.33;27.85;95257.34;5084812;28;20327;-82
2022/05/12 06:22:45;;;;;;;5.85;3.42;;;;;;;38.27;27.57;95206.97;5093296;28;20182;-80
2022/05/12 06:25:15;;;;;;;8.77;3.85;;;;;;;38.45;26.91;95181.22;5094905;28;20205;-81
2022/05/12 06:27:43;;;;;;;11.30;3.65;;;;;;;39.23;26.83;95256.69;5089338;28;20221;-81
2022/05/12 06:30:12;;;;;;;10.45;4.10;;;;;;;39.12;26.36;95200.75;5089486;28;20239;-81
2022/05/12 06:32:39;;;;;;;7.28;3.40;;;;;;;39.40;25.86;95211.28;5091175;28;20319;-81
2022/05/12 06:35:07;;;;;;;5.85;3.45;;;;;;;39.67;25.58;95217.56;5090805;28;20217;-81
2022/05/12 06:37:36;;;;;;;7.75;3.30;;;;;;;40.24;25.22;95261.22;5087955;28;20174;-79
2022/05/12 06:40:03;;;;;;;4.50;3.10;;;;;;;40.16;25.25;95212.97;5090972;28;20196;-81
2022/05/12 06:42:30;;;;;;;6.80;3.35;;;;;;;40.72;24.85;95262.25;5090820;28;20194;-78
2022/05/12 06:44:57;;;;;;;9.48;3.75;;;;;;;40.95;24.67;95254.84;5079651;28;20675;-79
2022/05/12 06:47:24;;;;;;;9.45;3.45;;;;;;;41.18;24.17;95266.19;5090619;28;20190;-81
2022/05/12 06:49:52;;;;;;;6.25;3.53;;;;;;;41.38;24.30;95256.69;5090509;28;20182;-81
2022/05/12 06:52:20;;;;;;;8.82;3.72;;;;;;;41.50;23.72;95252.25;5090211;28;20365;-79
2022/05/12 06:54:48;;;;;;;6.93;3.65;;;;;;;41.72;23.70;95253.13;5090582;28;20232;-81
2022/05/12 06:57:22;;;;;;;7.25;3.58;;;;;;;41.87;23.06;95255.28;5090631;28;20197;-78
2022/05/12 06:59:50;;;;;;;4.35;3.10;;;;;;;41.92;23.33;95232.81;5087110;28;20667;-81
2022/05/12 07:02:17;;;;;;;9.05;3.65;;;;;;;42.16;22.99;95248.34;5080998;28;20767;-81
2022/05/12 07:04:45;;;;;;;4.80;3.38;;;;;;;42.25;22.82;95247.19;5090922;28;20661;-79
2022/05/12 07:07:13;;;;;;;4.97;3.30;;;;;;;42.43;22.57;95252.47;5090507;28;20212;-80
2022/05/12 07:09:40;;;;;;;6.30;3.78;;;;;;;42.54;22.50;95254.44;5090344;28;20213;-80
2022/05/12 07:12:11;;;;;;;8.75;3.88;;;;;;;42.68;22.77;95246.13;5082937;28;20182;-80
2022/05/12 07:14:38;;;;;;;5.75;3.55;;;;;;;42.62;22.47;95227.78;5077949;28;20221;-80
2022/05/12 07:17:05;;;;;;;5.78;3.90;;;;;;;42.66;22.25;95218.75;5084157;28;20193;-82
2022/05/12 07:19:33;;;;;;;7.88;4.28;;;;;;;42.56;22.27;95184.16;5073592;28;20222;-80
2022/05/12 07:27:38;;;;;;;8.98;3.75;;;;;;;43.13;22.19;95252.72;5084727;28;20224;-81
2022/05/12 07:30:12;;;;;;;5.53;4.18;;;;;;;43.15;22.10;95242.41;5075629;28;20197;-82
2022/05/12 07:32:39;;;;;;;6.07;3.97;;;;;;;43.10;21.67;95231.88;5087554;28;20192;-81
2022/05/12 07:35:07;;;;;;;4.30;3.67;;;;;;;42.42;21.97;95127.19;5086588;28;20204;-81
2022/05/12 07:37:34;;;;;;;9.20;4.78;;;;;;;43.17;21.68;95240.16;5078057;28;20198;-82
2022/05/12 07:40:02;;;;;;;7.38;4.15;;;;;;;43.17;22.13;95234.78;5076727;28;20688;-81
2022/05/12 07:42:29;;;;;;;7.65;4.18;;;;;;;43.17;21.69;95234.78;5068801;28;20243;-82
2022/05/12 07:44:57;;;;;;;5.80;3.88;;;;;;;43.15;21.43;95234.34;5083381;28;20625;-82
2022/05/12 07:47:26;;;;;;;8.18;4.40;;;;;;;43.11;21.80;95230.75;5068844;28;20186;-81
2022/05/12 07:49:57;;;;;;;5.70;4.40;;;;;;;43.05;21.51;95235.53;5068411;28;20551;-81
2022/05/12 07:52:26;;;;;;;6.50;4.13;;;;;;;43.00;21.73;95236.50;5082839;28;20282;-82
2022/05/12 07:54:53;;;;;;;7.72;4.15;;;;;;;42.95;21.92;95231.31;5076186;28;20212;-82
2022/05/12 07:57:21;;;;;;;5.13;4.13;;;;;;;42.90;21.49;95230.75;5076454;28;20186;-82
2022/05/12 07:59:48;;;;;;;6.22;4.32;;;;;;;42.62;21.50;95201.69;5085414;28;20200;-80
2022/05/12 08:02:16;;;;;;;7.05;4.43;;;;;;;42.74;22.00;95227.88;5074166;28;20541;-82
2022/05/12 08:04:43;;;;;;;5.50;4.15;;;;;;;42.66;21.55;95228.72;5084402;28;20193;-81
2022/05/12 08:07:10;;;;;;;7.75;3.95;;;;;;;42.56;21.99;95228.00;5072355;28;20208;-81
2022/05/12 08:09:37;;;;;;;6.40;3.85;;;;;;;42.49;21.64;95227.75;5074863;28;20656;-81
2022/05/12 08:12:04;;;;;;;10.88;4.28;;;;;;;42.29;21.87;95212.38;5076088;28;20185;-80
2022/05/12 08:14:31;;;;;;;4.93;4.25;;;;;;;42.31;21.83;95224.38;5083015;28;20213;-81
2022/05/12 08:16:58;;;;;;;5.90;4.50;;;;;;;41.94;21.92;95180.31;5084214;28;20198;-81
2022/05/12 08:19:26;;;;;;;9.25;4.97;;;;;;;42.16;21.71;95226.84;5080789;28;20192;-81
2022/05/12 08:21:54;;;;;;;10.30;4.82;;;;;;;42.05;21.81;95219.13;5087517;28;20192;-81
2022/05/12 08:24:20;;;;;;;7.30;4.55;;;;;;;41.65;22.25;95174.94;5081518;28;20186;-80
2022/05/12 08:26:47;;;;;;;4.88;4.10;;;;;;;41.82;21.92;95212.47;5077895;28;20190;-81
2022/05/12 08:29:14;;;;;;;8.13;4.50;;;;;;;41.63;21.79;95195.94;5076474;28;20548;-81
2022/05/12 08:31:41;;;;;;;5.28;4.35;;;;;;;41.60;21.83;95218.88;5087814;28;20186;-80
2022/05/12 08:34:08;;;;;;;6.75;3.92;;;;;;;41.49;22.23;95217.66;5088065;28;20591;-80
2022/05/12 08:36:36;;;;;;;6.53;3.80;;;;;;;41.24;22.06;95197.81;5081927;28;20190;-83
2022/05/12 08:39:03;;;;;;;5.22;3.88;;;;;;;41.21;22.07;95209.97;5073461;28;20198;-80
2022/05/12 08:41:39;;;;;;;6.00;3.70;;;;;;;41.01;22.49;95206.06;5080762;28;20190;-81
2022/05/12 08:44:11;;;;;;;7.38;3.63;;;;;;;40.92;22.19;95210.63;5081359;28;20185;-81
2022/05/12 08:46:43;;;;;;;4.80;3.58;;;;;;;40.77;22.08;95209.25;5091951;28;20564;-81
2022/05/12 08:49:22;;;;;;;4.47;3.55;;;;;;;40.60;22.48;95212.72;5083642;28;20206;-81
2022/05/12 08:51:53;;;;;;;4.32;3.45;;;;;;;40.38;21.96;95204.81;5076537;28;20218;-80
2022/05/12 08:54:25;;;;;;;4.32;3.75;;;;;;;40.16;22.45;95197.72;5076796;28;20193;-81
2022/05/12 08:56:59;;;;;;;7.50;3.60;;;;;;;40.11;22.02;95212.06;5086685;28;20194;-81
2022/05/12 08:59:26;;;;;;;7.47;3.47;;;;;;;39.95;22.37;95205.53;5092446;28;20186;-80
2022/05/12 09:02:00;;;;;;;3.65;3.35;;;;;;;39.79;22.35;95207.84;5080803;28;20680;-80
2022/05/12 09:04:52;;;;;;;3.70;3.40;;;;;;;39.61;22.50;95206.97;5079941;28;20185;-81
2022/05/12 09:07:28;;;;;;;3.15;2.85;;;;;;;39.20;22.90;95169.75;5087984;28;20572;-80
2022/05/12 09:10:03;;;;;;;6.88;3.13;;;;;;;39.28;22.61;95208.38;5077017;28;20200;-80
2022/05/12 09:12:38;;;;;;;3.47;3.17;;;;;;;39.10;22.75;95202.91;5083187;28;20192;-83
2022/05/12 09:15:10;;;;;;;3.20;2.92;;;;;;;38.96;22.68;95201.41;5074522;28;20228;-82
2022/05/12 09:17:42;;;;;;;3.97;2.97;;;;;;;38.61;22.86;95175.22;5081574;28;20185;-81
2022/05/12 09:20:12;;;;;;;4.70;3.10;;;;;;;38.64;22.76;95193.28;5078673;28;20849;-79
2022/05/12 09:22:45;;;;;;;5.55;3.15;;;;;;;38.04;23.35;95137.47;5065928;28;20209;-80
2022/05/12 09:25:28;;;;;;;3.60;3.10;;;;;;;38.25;23.30;95190.44;5089136;28;20284;-82
2022/05/12 09:27:58;;;;;;;5.32;2.92;;;;;;;38.12;23.32;95200.84;5080759;28;20197;-78
2022/05/12 09:30:32;;;;;;;3.40;3.05;;;;;;;37.84;23.55;95184.06;5087646;28;20281;-81
2022/05/12 09:33:01;;;;;;;3.20;2.90;;;;;;;37.79;23.56;95199.41;5088873;28;21448;-84
2022/05/12 09:35:31;;;;;;;3.97;3.08;;;;;;;37.62;23.84;95192.78;5083056;28;20214;-82
2022/05/12 09:37:59;;;;;;;3.90;2.95;;;;;;;36.36;23.80;95025.91;5089650;28;20193;-85
2022/05/12 09:40:35;;;;;;;3.22;2.92;;;;;;;37.13;23.79;95178.16;5069161;28;20244;-77
2022/05/12 09:43:18;;;;;;;3.28;2.88;;;;;;;36.64;24.23;95128.84;5080672;28;20197;-78
2022/05/12 09:45:59;;;;;;;5.05;3.22;;;;;;;36.73;23.86;95170.84;5088241;28;20193;-83
2022/05/12 09:48:28;;;;;;;2.92;2.72;;;;;;;36.66;24.11;95181.88;5087621;28;20590;-81
2022/05/12 09:51:13;;;;;;;4.20;3.42;;;;;;;36.48;24.07;95180.00;5085681;28;20201;-80
2022/05/12 09:53:41;;;;;;;6.50;2.90;;;;;;;36.31;24.22;95181.28;5078854;28;20198;-81
2022/05/12 09:56:14;;;;;;;5.00;3.40;;;;;;;35.78;24.26;95130.06;5091493;28;20209;-82
2022/05/12 09:58:49;;;;;;;3.90;3.38;;;;;;;35.88;24.39;95159.19;5090715;28;20671;-83
2022/05/12 10:01:21;;;;;;;3.22;2.83;;;;;;;35.85;24.37;95179.22;5090497;28;20668;-80
2022/05/12 10:09:25;;;;;;;5.45;2.90;;;;;;;35.24;24.53;95149.84;5045361;28;20235;-81
2022/05/12 10:11:58;;;;;;;4.00;2.95;;;;;;;35.14;24.71;95156.81;5047792;28;20202;-81
2022/05/12 10:14:37;;;;;;;3.08;2.83;;;;;;;34.97;24.65;95160.97;5045020;28;20199;-80
2022/05/12 10:17:10;;;;;;;5.03;3.05;;;;;;;34.81;24.62;95153.13;5043085;28;20356;-80
2022/05/12 10:19:39;;;;;;;4.35;3.08;;;;;;;34.66;24.93;95148.72;5047879;28;20191;-82
2022/05/12 10:22:15;;;;;;;5.25;3.10;;;;;;;34.52;24.81;95145.13;5047602;28;20191;-81
2022/05/12 10:24:54;;;;;;;4.75;3.00;;;;;;;34.38;24.94;95142.28;5047748;28;20256;-82
2022/05/12 10:27:33;;;;;;;3.00;2.63;;;;;;;34.24;24.80;95129.88;5044735;28;20601;-80
2022/05/12 10:30:09;;;;;;;6.05;2.83;;;;;;;34.11;25.12;95128.66;5047451;28;20202;-80
2022/05/12 10:32:47;;;;;;;3.53;2.85;;;;;;;33.99;24.90;95129.00;5046714;28;20596;-81
2022/05/12 10:35:22;;;;;;;5.45;2.67;;;;;;;33.86;25.25;95125.06;5041656;28;20226;-81
2022/05/12 10:37:58;;;;;;;7.18;2.60;;;;;;;33.57;25.47;95087.00;5044336;28;20244;-80
2022/05/12 10:40:35;;;;;;;5.65;3.25;;;;;;;33.65;25.14;95118.28;5047804;28;20217;-80
2022/05/12 10:43:17;;;;;;;3.58;3.08;;;;;;;33.55;25.15;95113.00;5044228;28;20183;-80
2022/05/12 10:45:50;;;;;;;3.38;2.40;;;;;;;32.96;25.44;95034.97;5047412;28;20198;-80
2022/05/12 10:48:34;;;;;;;3.58;2.67;;;;;;;33.34;25.49;95110.41;5089477;28;20193;-80
2022/05/12 10:51:04;;;;;;;3.33;2.97;;;;;;;33.25;25.52;95104.09;5089219;28;20545;-80
2022/05/12 10:53:51;;;;;;;3.05;2.40;;;;;;;33.16;25.10;95100.38;5086169;28;20204;-80
2022/05/12 10:56:31;;;;;;;3.35;2.72;;;;;;;33.06;25.64;95095.13;5074822;28;20312;-80
2022/05/12 10:59:27;;;;;;;2.67;2.38;;;;;;;32.95;25.75;95092.50;5089522;28;20190;-79
2022/05/12 11:01:59;;;;;;;3.20;2.88;;;;;;;32.87;25.52;95093.00;5024915;28;20208;-80
2022/05/12 11:04:31;;;;;;;3.60;2.60;;;;;;;32.79;25.66;95093.56;5023880;28;20192;-79
2022/05/12 11:07:04;;;;;;;3.47;2.50;;;;;;;32.39;25.41;95050.16;5026803;28;20203;-80
2022/05/12 11:09:35;;;;;;;5.13;2.30;;;;;;;32.46;25.02;95077.16;5026960;28;20694;-81
2022/05/12 11:12:17;;;;;;;4.88;2.80;;;;;;;32.49;25.84;95086.44;5024474;28;20206;-79
2022/05/12 11:14:53;;;;;;;2.92;2.72;;;;;;;31.59;25.95;94964.34;5027088;28;20883;-80
2022/05/12 11:17:28;;;;;;;3.50;3.20;;;;;;;32.26;25.98;95073.72;5018198;28;20219;-81
2022/05/12 11:20:02;;;;;;;8.43;3.08;;;;;;;32.25;25.90;95087.97;5021483;28;20206;-80
2022/05/12 11:22:37;;;;;;;6.97;2.95;;;;;;;32.00;26.52;95055.16;5018077;28;20197;-81
2022/05/12 11:25:13;;;;;;;6.05;2.60;;;;;;;31.95;26.56;95052.50;5024259;28;20709;-81
2022/05/12 11:27:53;;;;;;;3.88;3.20;;;;;;;31.98;26.75;95062.56;5026760;28;20270;-79
2022/05/12 11:30:30;;;;;;;5.97;3.22;;;;;;;31.90;26.64;95063.88;5021803;28;20198;-81
2022/05/12 11:33:06;;;;;;;7.07;2.97;;;;;;;31.75;27.58;95044.50;5025550;28;20227;-79
2022/05/12 11:35:39;;;;;;;2.83;2.63;;;;;;;31.37;28.38;95009.50;5026057;28;20223;-79
2022/05/12 11:38:10;;;;;;;3.00;2.78;;;;;;;31.60;29.07;95053.97;5041798;28;20206;-77
2022/05/12 11:40:54;;;;;;;3.67;2.67;;;;;;;31.33;30.31;95021.66;5068526;28;20202;-78
2022/05/12 11:46:52;;;;;;;3.83;2.75;;;;;;;31.26;30.17;95040.38;4947965;28;20212;-79
2022/05/12 11:49:50;;;;;;;3.97;3.15;;;;;;;31.14;30.38;95031.88;4948137;29;20198;-79
2022/05/12 11:52:31;;;;;;;4.05;2.80;;;;;;;30.98;30.27;95023.88;4947849;29;20226;-79
2022/05/12 11:55:01;;;;;;;5.90;3.38;;;;;;;30.92;30.54;95026.78;4948297;28;20666;-79
2022/05/12 11:57:32;;;;;;;3.58;3.05;;;;;;;30.82;30.42;95022.22;4948274;29;20281;-79
2022/05/12 12:00:02;;;;;;;6.80;3.30;;;;;;;30.61;30.78;95004.63;4946280;29;20187;-80
2022/05/12 12:02:49;;;;;;;4.13;2.60;;;;;;;30.67;31.15;95028.19;4948765;29;20293;-79
2022/05/12 12:05:51;;;;;;;3.03;2.72;;;;;;;30.58;31.66;95023.66;4948127;29;20736;-79
2022/05/12 12:08:44;;;;;;;3.03;2.72;;;;;;;30.20;31.92;94970.88;4909338;29;20199;-80
2022/05/12 12:11:26;;;;;;;3.63;3.05;;;;;;;30.42;32.23;95014.81;4910634;29;20239;-80
2022/05/12 12:13:54;;;;;;;4.68;3.20;;;;;;;30.28;31.77;95000.50;4908768;29;20699;-79
2022/05/12 12:16:25;;;;;;;3.55;2.88;;;;;;;30.26;32.05;95006.00;4907197;29;20231;-78
2022/05/12 12:18:57;;;;;;;5.63;3.13;;;;;;;30.20;31.99;95004.38;4908895;29;20188;-79
2022/05/12 12:22:06;;;;;;;4.50;2.72;;;;;;;29.95;32.06;94971.44;4915324;29;20660;-79